EVRA/RIX METAR and TAF weather

Enter ICAO airport designator
Station Type Date Time Source
EVRA METAR 2018/10/22 16:50 UTC NOAA

EVRA 221650Z 27005KT 220V310 9999 SCT025CB 08/06 Q1013 R18/290195 NOSIG


Station Type Date Time Source
EVRA Decoded METAR 2018/10/22 16:50 UTC NOAA

Riga International Airport, Latvia (EVRA) 56-55N 023-58E
Oct 22, 2018 - 12:50 PM EDT / 2018.10.22 1650 UTC
Wind: from the W (270 degrees) at 6 MPH (5 KT) (direction variable):0
Visibility: greater than 7 mile(s):0
Sky conditions: partly cloudy
Weather: Cumulonimbus clouds observed
Temperature: 46 F (8 C)
Dew Point: 42 F (6 C)
Relative Humidity: 87%
Pressure (altimeter): 29.91 in. Hg (1013 hPa)
ob: EVRA 221650Z 27005KT 220V310 9999 SCT025CB 08/06 Q1013 R18/290195 NOSIG
cycle: 17

Station Type Date Time Source
EVRA TAF 2018/10/22 15:07 UTC NOAA

TAF EVRA 221403Z 2215/2315 27007KT 9999 BKN020
TEMPO 2215/2218 BKN010 SCT015CB
TEMPO 2223/2306 3000 BR
BECMG 2302/2304 19010KT
BECMG 2310/2311 OVC010
TEMPO 2311/2315 17015G30KT BKN005 SCT010CB


Example: see airport list